sensor_id;sensor_type;location;lat;lon;timestamp;temperature;humidity
1391;DHT22;690;51.454;7.194;2022-09-06T00:00:43;22.50;99.90
1391;DHT22;690;51.454;7.194;2022-09-06T00:03:10;22.50;99.90
1391;DHT22;690;51.454;7.194;2022-09-06T00:05:38;22.50;99.90
1391;DHT22;690;51.454;7.194;2022-09-06T00:08:07;22.40;99.90
1391;DHT22;690;51.454;7.194;2022-09-06T00:10:33;22.40;99.90
1391;DHT22;690;51.454;7.194;2022-09-06T00:13:03;22.40;99.90
1391;DHT22;690;51.454;7.194;2022-09-06T00:15:31;22.40;99.90
1391;DHT22;690;51.454;7.194;2022-09-06T00:17:59;22.30;99.90
1391;DHT22;690;51.454;7.194;2022-09-06T00:20:26;22.30;99.90
1391;DHT22;690;51.454;7.194;2022-09-06T00:22:57;22.30;99.90
1391;DHT22;690;51.454;7.194;2022-09-06T00:25:26;22.30;99.90
1391;DHT22;690;51.454;7.194;2022-09-06T00:27:54;22.30;99.90
1391;DHT22;690;51.454;7.194;2022-09-06T00:30:21;22.30;99.90
1391;DHT22;690;51.454;7.194;2022-09-06T00:32:48;22.40;99.90
1391;DHT22;690;51.454;7.194;2022-09-06T00:35:16;22.30;99.90
1391;DHT22;690;51.454;7.194;2022-09-06T00:37:43;22.40;99.90
1391;DHT22;690;51.454;7.194;2022-09-06T00:40:12;22.40;99.90
1391;DHT22;690;51.454;7.194;2022-09-06T00:42:39;22.40;99.90
1391;DHT22;690;51.454;7.194;2022-09-06T00:45:07;22.50;99.90
1391;DHT22;690;51.454;7.194;2022-09-06T00:47:37;22.50;99.90
1391;DHT22;690;51.454;7.194;2022-09-06T00:50:07;22.50;99.90
1391;DHT22;690;51.454;7.194;2022-09-06T00:52:36;22.50;99.90
1391;DHT22;690;51.454;7.194;2022-09-06T00:55:04;22.50;99.90
1391;DHT22;690;51.454;7.194;2022-09-06T00:57:32;22.40;99.90
1391;DHT22;690;51.454;7.194;2022-09-06T01:00:00;22.40;99.90
1391;DHT22;690;51.454;7.194;2022-09-06T01:02:27;22.40;99.90
1391;DHT22;690;51.454;7.194;2022-09-06T01:04:55;22.30;99.90
1391;DHT22;690;51.454;7.194;2022-09-06T01:07:31;22.30;99.90
1391;DHT22;690;51.454;7.194;2022-09-06T01:10:12;22.30;99.90
1391;DHT22;690;51.454;7.194;2022-09-06T01:12:50;22.30;99.90
1391;DHT22;690;51.454;7.194;2022-09-06T01:15:30;22.30;99.90
1391;DHT22;690;51.454;7.194;2022-09-06T01:18:07;22.40;99.90
1391;DHT22;690;51.454;7.194;2022-09-06T01:23:44;22.40;99.90
1391;DHT22;690;51.454;7.194;2022-09-06T01:29:13;22.40;99.90
1391;DHT22;690;51.454;7.194;2022-09-06T01:31:47;22.50;99.90
1391;DHT22;690;51.454;7.194;2022-09-06T01:34:20;22.60;99.90
1391;DHT22;690;51.454;7.194;2022-09-06T01:36:53;22.60;99.90
1391;DHT22;690;51.454;7.194;2022-09-06T01:39:24;22.70;99.90
1391;DHT22;690;51.454;7.194;2022-09-06T01:41:53;22.80;99.90
1391;DHT22;690;51.454;7.194;2022-09-06T01:44:23;22.90;99.90
1391;DHT22;690;51.454;7.194;2022-09-06T01:46:57;22.90;99.90
1391;DHT22;690;51.454;7.194;2022-09-06T01:49:37;23.00;99.90
1391;DHT22;690;51.454;7.194;2022-09-06T01:52:12;23.10;99.90
1391;DHT22;690;51.454;7.194;2022-09-06T01:54:59;23.10;99.90
1391;DHT22;690;51.454;7.194;2022-09-06T01:57:49;23.30;99.90
1391;DHT22;690;51.454;7.194;2022-09-06T02:00:19;23.30;99.90
1391;DHT22;690;51.454;7.194;2022-09-06T02:02:59;23.30;99.90
1391;DHT22;690;51.454;7.194;2022-09-06T02:05:33;23.30;99.90
1391;DHT22;690;51.454;7.194;2022-09-06T02:08:05;23.30;99.90
1391;DHT22;690;51.454;7.194;2022-09-06T02:10:39;23.30;99.90
1391;DHT22;690;51.454;7.194;2022-09-06T02:13:09;23.30;99.90
1391;DHT22;690;51.454;7.194;2022-09-06T02:15:44;23.30;99.90
1391;DHT22;690;51.454;7.194;2022-09-06T02:18:14;23.40;99.90
1391;DHT22;690;51.454;7.194;2022-09-06T02:20:47;23.30;99.90
1391;DHT22;690;51.454;7.194;2022-09-06T02:23:17;23.30;99.90
1391;DHT22;690;51.454;7.194;2022-09-06T02:25:50;23.30;99.90
1391;DHT22;690;51.454;7.194;2022-09-06T02:28:18;23.20;99.90
1391;DHT22;690;51.454;7.194;2022-09-06T02:30:49;23.20;99.90
1391;DHT22;690;51.454;7.194;2022-09-06T02:33:18;23.20;99.90
1391;DHT22;690;51.454;7.194;2022-09-06T02:35:47;23.20;99.90
1391;DHT22;690;51.454;7.194;2022-09-06T02:38:15;23.10;99.90
1391;DHT22;690;51.454;7.194;2022-09-06T02:40:43;23.10;99.90
1391;DHT22;690;51.454;7.194;2022-09-06T02:43:11;23.00;99.90
1391;DHT22;690;51.454;7.194;2022-09-06T02:45:38;23.00;99.90
1391;DHT22;690;51.454;7.194;2022-09-06T02:48:06;23.00;99.90
1391;DHT22;690;51.454;7.194;2022-09-06T02:50:33;22.90;99.90
1391;DHT22;690;51.454;7.194;2022-09-06T02:53:03;22.90;99.90
1391;DHT22;690;51.454;7.194;2022-09-06T02:55:31;22.90;99.90
1391;DHT22;690;51.454;7.194;2022-09-06T02:57:58;22.80;99.90
1391;DHT22;690;51.454;7.194;2022-09-06T03:00:25;22.80;99.90
1391;DHT22;690;51.454;7.194;2022-09-06T03:02:52;22.80;99.90
1391;DHT22;690;51.454;7.194;2022-09-06T03:05:21;22.70;99.90
1391;DHT22;690;51.454;7.194;2022-09-06T03:07:48;22.60;99.90
1391;DHT22;690;51.454;7.194;2022-09-06T03:10:15;22.60;99.90
1391;DHT22;690;51.454;7.194;2022-09-06T03:12:43;22.50;99.90
1391;DHT22;690;51.454;7.194;2022-09-06T03:15:11;22.50;99.90
1391;DHT22;690;51.454;7.194;2022-09-06T03:17:38;22.40;99.90
1391;DHT22;690;51.454;7.194;2022-09-06T03:20:07;22.40;99.90
1391;DHT22;690;51.454;7.194;2022-09-06T03:22:36;22.40;99.90
1391;DHT22;690;51.454;7.194;2022-09-06T03:25:04;22.30;99.90
1391;DHT22;690;51.454;7.194;2022-09-06T03:27:31;22.30;99.90
1391;DHT22;690;51.454;7.194;2022-09-06T03:29:58;22.30;99.90
1391;DHT22;690;51.454;7.194;2022-09-06T03:32:25;22.30;99.90
1391;DHT22;690;51.454;7.194;2022-09-06T03:34:52;22.20;99.90
1391;DHT22;690;51.454;7.194;2022-09-06T03:37:19;22.20;99.90
1391;DHT22;690;51.454;7.194;2022-09-06T03:39:47;22.20;99.90
1391;DHT22;690;51.454;7.194;2022-09-06T03:42:14;22.20;99.90
1391;DHT22;690;51.454;7.194;2022-09-06T03:44:41;22.10;99.90
1391;DHT22;690;51.454;7.194;2022-09-06T03:47:08;22.10;99.90
1391;DHT22;690;51.454;7.194;2022-09-06T03:49:35;22.10;99.90
1391;DHT22;690;51.454;7.194;2022-09-06T03:52:02;22.00;99.90
1391;DHT22;690;51.454;7.194;2022-09-06T03:54:29;22.00;99.90
1391;DHT22;690;51.454;7.194;2022-09-06T03:56:58;22.00;99.90
1391;DHT22;690;51.454;7.194;2022-09-06T03:59:25;22.00;99.90
1391;DHT22;690;51.454;7.194;2022-09-06T04:01:52;22.00;99.90
1391;DHT22;690;51.454;7.194;2022-09-06T04:04:19;22.00;99.90
1391;DHT22;690;51.454;7.194;2022-09-06T04:06:46;22.00;99.90
1391;DHT22;690;51.454;7.194;2022-09-06T04:09:13;22.00;99.90
1391;DHT22;690;51.454;7.194;2022-09-06T04:11:40;21.90;1.00
1391;DHT22;690;51.454;7.194;2022-09-06T04:14:08;22.00;1.00
1391;DHT22;690;51.454;7.194;2022-09-06T04:16:35;22.00;1.00
1391;DHT22;690;51.454;7.194;2022-09-06T04:19:02;22.00;1.00
1391;DHT22;690;51.454;7.194;2022-09-06T04:21:30;22.00;1.00
1391;DHT22;690;51.454;7.194;2022-09-06T04:23:57;21.90;1.00
1391;DHT22;690;51.454;7.194;2022-09-06T04:26:24;21.90;1.00
1391;DHT22;690;51.454;7.194;2022-09-06T04:28:51;21.70;1.00
1391;DHT22;690;51.454;7.194;2022-09-06T04:31:19;21.70;1.00
1391;DHT22;690;51.454;7.194;2022-09-06T04:33:46;21.70;1.00
1391;DHT22;690;51.454;7.194;2022-09-06T04:36:13;21.60;1.00
1391;DHT22;690;51.454;7.194;2022-09-06T04:38:41;21.60;1.00
1391;DHT22;690;51.454;7.194;2022-09-06T04:41:10;21.50;1.00
1391;DHT22;690;51.454;7.194;2022-09-06T04:43:37;21.50;1.00
1391;DHT22;690;51.454;7.194;2022-09-06T04:46:05;21.50;1.00
1391;DHT22;690;51.454;7.194;2022-09-06T04:48:34;21.50;1.00
1391;DHT22;690;51.454;7.194;2022-09-06T04:51:01;21.50;1.00
1391;DHT22;690;51.454;7.194;2022-09-06T04:53:28;21.40;1.00
1391;DHT22;690;51.454;7.194;2022-09-06T04:55:56;21.50;1.00
1391;DHT22;690;51.454;7.194;2022-09-06T04:58:23;21.50;1.00
1391;DHT22;690;51.454;7.194;2022-09-06T05:00:50;21.50;1.00
1391;DHT22;690;51.454;7.194;2022-09-06T05:03:17;21.50;1.00
1391;DHT22;690;51.454;7.194;2022-09-06T05:05:46;21.60;1.00
1391;DHT22;690;51.454;7.194;2022-09-06T05:08:13;21.60;1.00
1391;DHT22;690;51.454;7.194;2022-09-06T05:10:40;21.60;1.00
1391;DHT22;690;51.454;7.194;2022-09-06T05:13:07;21.70;99.90
1391;DHT22;690;51.454;7.194;2022-09-06T05:15:34;21.70;99.90
1391;DHT22;690;51.454;7.194;2022-09-06T05:18:02;21.70;99.90
1391;DHT22;690;51.454;7.194;2022-09-06T05:20:29;21.70;99.90
1391;DHT22;690;51.454;7.194;2022-09-06T05:22:58;21.80;99.90
1391;DHT22;690;51.454;7.194;2022-09-06T05:25:25;21.80;99.90
1391;DHT22;690;51.454;7.194;2022-09-06T05:27:52;21.90;99.90
1391;DHT22;690;51.454;7.194;2022-09-06T05:30:18;21.80;99.90
1391;DHT22;690;51.454;7.194;2022-09-06T05:32:45;21.90;99.90
1391;DHT22;690;51.454;7.194;2022-09-06T05:35:13;21.90;99.90
1391;DHT22;690;51.454;7.194;2022-09-06T05:37:40;21.90;99.90
1391;DHT22;690;51.454;7.194;2022-09-06T05:40:09;21.90;99.90
1391;DHT22;690;51.454;7.194;2022-09-06T05:42:36;21.90;99.90
1391;DHT22;690;51.454;7.194;2022-09-06T05:45:03;21.90;99.90
1391;DHT22;690;51.454;7.194;2022-09-06T05:47:31;21.90;99.90
1391;DHT22;690;51.454;7.194;2022-09-06T05:50:00;22.00;99.90
1391;DHT22;690;51.454;7.194;2022-09-06T05:52:27;22.10;99.90
1391;DHT22;690;51.454;7.194;2022-09-06T05:54:54;22.10;99.90
1391;DHT22;690;51.454;7.194;2022-09-06T05:57:23;22.10;99.90
1391;DHT22;690;51.454;7.194;2022-09-06T05:59:50;22.10;99.90
1391;DHT22;690;51.454;7.194;2022-09-06T06:02:18;22.20;99.90
1391;DHT22;690;51.454;7.194;2022-09-06T06:04:45;22.20;99.90
1391;DHT22;690;51.454;7.194;2022-09-06T06:07:12;22.30;99.90
1391;DHT22;690;51.454;7.194;2022-09-06T06:09:39;22.30;99.90
1391;DHT22;690;51.454;7.194;2022-09-06T06:12:07;22.40;99.90
1391;DHT22;690;51.454;7.194;2022-09-06T06:14:35;22.40;99.90
1391;DHT22;690;51.454;7.194;2022-09-06T06:17:02;22.50;99.90
1391;DHT22;690;51.454;7.194;2022-09-06T06:19:29;22.50;99.90
1391;DHT22;690;51.454;7.194;2022-09-06T06:21:57;22.60;99.90
1391;DHT22;690;51.454;7.194;2022-09-06T06:24:24;22.60;99.90
1391;DHT22;690;51.454;7.194;2022-09-06T06:26:51;22.70;99.90
1391;DHT22;690;51.454;7.194;2022-09-06T06:29:18;22.70;99.90
1391;DHT22;690;51.454;7.194;2022-09-06T06:31:47;22.80;99.90
1391;DHT22;690;51.454;7.194;2022-09-06T06:34:14;22.80;99.90
1391;DHT22;690;51.454;7.194;2022-09-06T06:36:40;22.90;99.90
1391;DHT22;690;51.454;7.194;2022-09-06T06:39:09;22.90;99.90
1391;DHT22;690;51.454;7.194;2022-09-06T06:41:36;23.00;99.90
1391;DHT22;690;51.454;7.194;2022-09-06T06:44:04;23.10;99.90
1391;DHT22;690;51.454;7.194;2022-09-06T06:46:32;23.10;99.90
1391;DHT22;690;51.454;7.194;2022-09-06T06:49:02;23.20;99.90
1391;DHT22;690;51.454;7.194;2022-09-06T06:51:31;23.30;99.90
1391;DHT22;690;51.454;7.194;2022-09-06T06:53:58;23.40;99.90
1391;DHT22;690;51.454;7.194;2022-09-06T06:56:27;23.50;99.90
1391;DHT22;690;51.454;7.194;2022-09-06T06:58:55;23.50;99.90
1391;DHT22;690;51.454;7.194;2022-09-06T07:01:23;23.60;99.90
1391;DHT22;690;51.454;7.194;2022-09-06T07:03:51;23.60;99.90
1391;DHT22;690;51.454;7.194;2022-09-06T07:06:21;23.70;99.90
1391;DHT22;690;51.454;7.194;2022-09-06T07:08:48;23.80;99.90
1391;DHT22;690;51.454;7.194;2022-09-06T07:11:16;23.80;99.90
1391;DHT22;690;51.454;7.194;2022-09-06T07:13:44;23.90;99.90
1391;DHT22;690;51.454;7.194;2022-09-06T07:16:13;24.00;99.90
1391;DHT22;690;51.454;7.194;2022-09-06T07:18:41;24.00;99.90
1391;DHT22;690;51.454;7.194;2022-09-06T07:21:10;24.00;99.90
1391;DHT22;690;51.454;7.194;2022-09-06T07:23:39;24.10;99.90
1391;DHT22;690;51.454;7.194;2022-09-06T07:26:06;24.20;99.90
1391;DHT22;690;51.454;7.194;2022-09-06T07:28:33;24.20;99.90
1391;DHT22;690;51.454;7.194;2022-09-06T07:31:00;24.20;99.90
1391;DHT22;690;51.454;7.194;2022-09-06T07:33:27;24.30;99.90
1391;DHT22;690;51.454;7.194;2022-09-06T07:35:59;24.40;99.90
1391;DHT22;690;51.454;7.194;2022-09-06T07:38:27;24.40;99.90
1391;DHT22;690;51.454;7.194;2022-09-06T07:40:57;24.50;99.90
1391;DHT22;690;51.454;7.194;2022-09-06T07:43:24;24.60;99.90
1391;DHT22;690;51.454;7.194;2022-09-06T07:45:59;24.70;99.90
1391;DHT22;690;51.454;7.194;2022-09-06T07:48:27;24.80;99.90
1391;DHT22;690;51.454;7.194;2022-09-06T07:50:54;24.90;99.90
1391;DHT22;690;51.454;7.194;2022-09-06T07:53:21;24.90;99.90
1391;DHT22;690;51.454;7.194;2022-09-06T07:55:48;25.00;99.90
1391;DHT22;690;51.454;7.194;2022-09-06T07:58:16;25.10;99.90
1391;DHT22;690;51.454;7.194;2022-09-06T08:00:43;25.20;99.90
1391;DHT22;690;51.454;7.194;2022-09-06T08:03:10;25.20;99.90
1391;DHT22;690;51.454;7.194;2022-09-06T08:05:38;25.30;99.90
1391;DHT22;690;51.454;7.194;2022-09-06T08:08:05;25.40;99.90
1391;DHT22;690;51.454;7.194;2022-09-06T08:10:32;25.40;99.90
1391;DHT22;690;51.454;7.194;2022-09-06T08:12:59;25.50;99.90
1391;DHT22;690;51.454;7.194;2022-09-06T08:15:27;25.60;99.90
1391;DHT22;690;51.454;7.194;2022-09-06T08:17:56;25.60;99.90
1391;DHT22;690;51.454;7.194;2022-09-06T08:20:23;25.70;99.90
1391;DHT22;690;51.454;7.194;2022-09-06T08:22:50;25.80;99.90
1391;DHT22;690;51.454;7.194;2022-09-06T08:25:17;25.80;99.90
1391;DHT22;690;51.454;7.194;2022-09-06T08:27:44;26.00;99.90
1391;DHT22;690;51.454;7.194;2022-09-06T08:30:11;26.00;99.90
1391;DHT22;690;51.454;7.194;2022-09-06T08:32:40;26.10;99.90
1391;DHT22;690;51.454;7.194;2022-09-06T08:35:08;26.20;99.90
1391;DHT22;690;51.454;7.194;2022-09-06T08:37:36;26.20;99.90
1391;DHT22;690;51.454;7.194;2022-09-06T08:40:03;26.30;99.90
1391;DHT22;690;51.454;7.194;2022-09-06T08:42:30;26.40;99.90
1391;DHT22;690;51.454;7.194;2022-09-06T08:44:57;26.50;99.90
1391;DHT22;690;51.454;7.194;2022-09-06T08:47:26;26.50;99.90
1391;DHT22;690;51.454;7.194;2022-09-06T08:49:59;26.60;99.90
1391;DHT22;690;51.454;7.194;2022-09-06T08:52:52;26.70;99.90
1391;DHT22;690;51.454;7.194;2022-09-06T08:55:35;26.70;99.90
1391;DHT22;690;51.454;7.194;2022-09-06T08:58:23;26.80;99.90
1391;DHT22;690;51.454;7.194;2022-09-06T09:01:00;26.90;99.90
1391;DHT22;690;51.454;7.194;2022-09-06T09:03:31;26.90;99.90
1391;DHT22;690;51.454;7.194;2022-09-06T09:06:00;26.90;99.90
1391;DHT22;690;51.454;7.194;2022-09-06T09:08:35;27.00;99.90
1391;DHT22;690;51.454;7.194;2022-09-06T09:11:07;27.10;99.90
1391;DHT22;690;51.454;7.194;2022-09-06T09:13:49;27.10;99.90
1391;DHT22;690;51.454;7.194;2022-09-06T09:16:17;27.10;99.90
1391;DHT22;690;51.454;7.194;2022-09-06T09:18:46;27.20;99.90
1391;DHT22;690;51.454;7.194;2022-09-06T09:21:19;27.30;99.90
1391;DHT22;690;51.454;7.194;2022-09-06T09:23:51;27.40;99.90
1391;DHT22;690;51.454;7.194;2022-09-06T09:26:19;27.50;99.90
1391;DHT22;690;51.454;7.194;2022-09-06T09:29:05;27.50;99.90
1391;DHT22;690;51.454;7.194;2022-09-06T09:31:34;27.50;99.90
1391;DHT22;690;51.454;7.194;2022-09-06T09:34:01;27.50;99.90
1391;DHT22;690;51.454;7.194;2022-09-06T09:36:31;27.60;99.90
1391;DHT22;690;51.454;7.194;2022-09-06T09:38:58;27.70;99.90
1391;DHT22;690;51.454;7.194;2022-09-06T09:41:31;27.70;99.90
1391;DHT22;690;51.454;7.194;2022-09-06T09:44:02;27.80;99.90
1391;DHT22;690;51.454;7.194;2022-09-06T09:46:31;27.80;99.90
1391;DHT22;690;51.454;7.194;2022-09-06T09:49:06;27.90;99.90
1391;DHT22;690;51.454;7.194;2022-09-06T09:51:36;27.90;99.90
1391;DHT22;690;51.454;7.194;2022-09-06T09:54:05;28.00;99.90
1391;DHT22;690;51.454;7.194;2022-09-06T09:56:37;28.10;99.90
1391;DHT22;690;51.454;7.194;2022-09-06T09:59:21;28.20;99.90
1391;DHT22;690;51.454;7.194;2022-09-06T10:01:52;28.20;99.90
1391;DHT22;690;51.454;7.194;2022-09-06T10:04:26;28.20;99.90
1391;DHT22;690;51.454;7.194;2022-09-06T10:07:06;28.20;99.90
1391;DHT22;690;51.454;7.194;2022-09-06T10:09:36;28.30;99.90
1391;DHT22;690;51.454;7.194;2022-09-06T10:12:04;28.30;99.90
1391;DHT22;690;51.454;7.194;2022-09-06T10:14:39;28.40;99.90
1391;DHT22;690;51.454;7.194;2022-09-06T10:17:07;28.50;99.90
1391;DHT22;690;51.454;7.194;2022-09-06T10:19:39;28.50;99.90
1391;DHT22;690;51.454;7.194;2022-09-06T10:22:26;28.50;99.90
1391;DHT22;690;51.454;7.194;2022-09-06T10:28:04;28.70;99.90
1391;DHT22;690;51.454;7.194;2022-09-06T10:30:33;28.70;99.90
1391;DHT22;690;51.454;7.194;2022-09-06T10:33:06;28.70;99.90
1391;DHT22;690;51.454;7.194;2022-09-06T10:35:36;28.80;99.90
1391;DHT22;690;51.454;7.194;2022-09-06T10:38:18;28.90;99.90
1391;DHT22;690;51.454;7.194;2022-09-06T10:40:56;28.90;99.90
1391;DHT22;690;51.454;7.194;2022-09-06T10:43:41;29.00;99.90
1391;DHT22;690;51.454;7.194;2022-09-06T10:46:14;29.00;99.90
1391;DHT22;690;51.454;7.194;2022-09-06T10:48:44;29.10;99.90
1391;DHT22;690;51.454;7.194;2022-09-06T10:51:16;29.10;99.90
1391;DHT22;690;51.454;7.194;2022-09-06T10:53:52;29.10;99.90
1391;DHT22;690;51.454;7.194;2022-09-06T10:56:24;29.20;99.90
1391;DHT22;690;51.454;7.194;2022-09-06T10:58:58;29.30;99.90
1391;DHT22;690;51.454;7.194;2022-09-06T11:01:31;29.40;99.90
1391;DHT22;690;51.454;7.194;2022-09-06T11:04:00;29.40;99.90
1391;DHT22;690;51.454;7.194;2022-09-06T11:06:33;29.40;99.90
1391;DHT22;690;51.454;7.194;2022-09-06T11:09:10;29.40;99.90
1391;DHT22;690;51.454;7.194;2022-09-06T11:11:41;29.50;99.90
1391;DHT22;690;51.454;7.194;2022-09-06T11:14:11;29.50;99.90
1391;DHT22;690;51.454;7.194;2022-09-06T11:16:44;29.50;99.90
1391;DHT22;690;51.454;7.194;2022-09-06T11:19:18;29.60;99.90
1391;DHT22;690;51.454;7.194;2022-09-06T11:22:02;29.60;99.90
1391;DHT22;690;51.454;7.194;2022-09-06T11:24:44;29.60;99.90
1391;DHT22;690;51.454;7.194;2022-09-06T11:27:19;29.70;99.90
1391;DHT22;690;51.454;7.194;2022-09-06T11:29:51;29.70;99.90
1391;DHT22;690;51.454;7.194;2022-09-06T11:32:29;29.80;99.90
1391;DHT22;690;51.454;7.194;2022-09-06T11:34:59;30.00;99.90
1391;DHT22;690;51.454;7.194;2022-09-06T11:37:33;29.90;99.90
1391;DHT22;690;51.454;7.194;2022-09-06T11:40:11;30.00;99.90
1391;DHT22;690;51.454;7.194;2022-09-06T11:42:41;30.00;99.90
1391;DHT22;690;51.454;7.194;2022-09-06T11:45:39;30.10;99.90
1391;DHT22;690;51.454;7.194;2022-09-06T11:48:29;30.10;99.90
1391;DHT22;690;51.454;7.194;2022-09-06T11:51:02;30.30;99.90
1391;DHT22;690;51.454;7.194;2022-09-06T11:53:33;30.30;99.90
1391;DHT22;690;51.454;7.194;2022-09-06T11:56:24;30.30;99.90
1391;DHT22;690;51.454;7.194;2022-09-06T11:58:58;30.30;99.90
1391;DHT22;690;51.454;7.194;2022-09-06T12:01:37;30.30;99.90
1391;DHT22;690;51.454;7.194;2022-09-06T12:04:08;30.40;99.90
1391;DHT22;690;51.454;7.194;2022-09-06T12:06:39;30.40;99.90
1391;DHT22;690;51.454;7.194;2022-09-06T12:09:27;30.40;99.90
1391;DHT22;690;51.454;7.194;2022-09-06T12:11:57;30.50;99.90
1391;DHT22;690;51.454;7.194;2022-09-06T12:14:35;30.50;99.90
1391;DHT22;690;51.454;7.194;2022-09-06T12:17:25;30.50;99.90
1391;DHT22;690;51.454;7.194;2022-09-06T12:19:58;30.60;99.90
1391;DHT22;690;51.454;7.194;2022-09-06T12:22:53;30.60;99.90
1391;DHT22;690;51.454;7.194;2022-09-06T12:28:41;30.80;99.90
1391;DHT22;690;51.454;7.194;2022-09-06T12:31:29;30.70;99.90
1391;DHT22;690;51.454;7.194;2022-09-06T12:34:05;30.70;99.90
1391;DHT22;690;51.454;7.194;2022-09-06T12:36:32;30.80;99.90
1391;DHT22;690;51.454;7.194;2022-09-06T12:39:02;30.80;99.90
1391;DHT22;690;51.454;7.194;2022-09-06T12:41:35;30.90;99.90
1391;DHT22;690;51.454;7.194;2022-09-06T12:44:04;31.00;99.90
1391;DHT22;690;51.454;7.194;2022-09-06T12:46:33;31.00;99.90
1391;DHT22;690;51.454;7.194;2022-09-06T12:49:06;31.10;99.90
1391;DHT22;690;51.454;7.194;2022-09-06T12:51:34;31.10;99.90
1391;DHT22;690;51.454;7.194;2022-09-06T12:54:03;31.00;99.90
1391;DHT22;690;51.454;7.194;2022-09-06T12:56:31;31.00;99.90
1391;DHT22;690;51.454;7.194;2022-09-06T12:59:12;31.10;99.90
1391;DHT22;690;51.454;7.194;2022-09-06T13:01:41;31.10;99.90
1391;DHT22;690;51.454;7.194;2022-09-06T13:04:13;31.20;99.90
1391;DHT22;690;51.454;7.194;2022-09-06T13:06:44;31.20;99.90
1391;DHT22;690;51.454;7.194;2022-09-06T13:09:14;31.20;99.90
1391;DHT22;690;51.454;7.194;2022-09-06T13:11:46;31.30;99.90
1391;DHT22;690;51.454;7.194;2022-09-06T13:14:18;31.40;99.90
1391;DHT22;690;51.454;7.194;2022-09-06T13:16:47;31.40;99.90
1391;DHT22;690;51.454;7.194;2022-09-06T13:19:17;31.50;99.90
1391;DHT22;690;51.454;7.194;2022-09-06T13:21:45;31.50;99.90
1391;DHT22;690;51.454;7.194;2022-09-06T13:24:20;31.50;99.90
1391;DHT22;690;51.454;7.194;2022-09-06T13:26:48;31.50;99.90
1391;DHT22;690;51.454;7.194;2022-09-06T13:29:27;31.60;99.90
1391;DHT22;690;51.454;7.194;2022-09-06T13:31:56;31.60;99.90
1391;DHT22;690;51.454;7.194;2022-09-06T13:34:25;31.50;99.90
1391;DHT22;690;51.454;7.194;2022-09-06T13:36:53;31.60;99.90
1391;DHT22;690;51.454;7.194;2022-09-06T13:39:28;31.60;99.90
1391;DHT22;690;51.454;7.194;2022-09-06T13:42:00;31.80;99.90
1391;DHT22;690;51.454;7.194;2022-09-06T13:44:30;31.80;99.90
1391;DHT22;690;51.454;7.194;2022-09-06T13:46:57;31.90;99.90
1391;DHT22;690;51.454;7.194;2022-09-06T13:49:24;32.00;99.90
1391;DHT22;690;51.454;7.194;2022-09-06T13:51:54;32.10;99.90
1391;DHT22;690;51.454;7.194;2022-09-06T13:54:21;32.20;99.90
1391;DHT22;690;51.454;7.194;2022-09-06T13:56:48;32.20;99.90
1391;DHT22;690;51.454;7.194;2022-09-06T13:59:16;32.30;99.90
1391;DHT22;690;51.454;7.194;2022-09-06T14:01:46;32.30;99.90
1391;DHT22;690;51.454;7.194;2022-09-06T14:04:16;32.30;99.90
1391;DHT22;690;51.454;7.194;2022-09-06T14:06:46;32.20;99.90
1391;DHT22;690;51.454;7.194;2022-09-06T14:09:13;32.10;99.90
1391;DHT22;690;51.454;7.194;2022-09-06T14:11:40;32.00;99.90
1391;DHT22;690;51.454;7.194;2022-09-06T14:14:07;32.00;99.90
1391;DHT22;690;51.454;7.194;2022-09-06T14:16:37;32.10;99.90
1391;DHT22;690;51.454;7.194;2022-09-06T14:19:06;32.10;99.90
1391;DHT22;690;51.454;7.194;2022-09-06T14:21:33;32.10;99.90
1391;DHT22;690;51.454;7.194;2022-09-06T14:24:01;32.10;99.90
1391;DHT22;690;51.454;7.194;2022-09-06T14:26:28;32.10;99.90
1391;DHT22;690;51.454;7.194;2022-09-06T14:28:55;32.10;99.90
1391;DHT22;690;51.454;7.194;2022-09-06T14:31:24;32.10;99.90
1391;DHT22;690;51.454;7.194;2022-09-06T14:33:52;32.10;99.90
1391;DHT22;690;51.454;7.194;2022-09-06T14:36:23;32.10;99.90
1391;DHT22;690;51.454;7.194;2022-09-06T14:38:51;32.20;99.90
1391;DHT22;690;51.454;7.194;2022-09-06T14:41:18;32.30;99.90
1391;DHT22;690;51.454;7.194;2022-09-06T14:43:48;32.30;99.90
1391;DHT22;690;51.454;7.194;2022-09-06T14:46:16;32.30;99.90
1391;DHT22;690;51.454;7.194;2022-09-06T14:48:45;32.30;99.90
1391;DHT22;690;51.454;7.194;2022-09-06T14:51:13;32.30;99.90
1391;DHT22;690;51.454;7.194;2022-09-06T14:53:44;32.30;99.90
1391;DHT22;690;51.454;7.194;2022-09-06T14:56:12;32.40;99.90
1391;DHT22;690;51.454;7.194;2022-09-06T14:58:39;32.40;99.90
1391;DHT22;690;51.454;7.194;2022-09-06T15:01:09;32.50;99.90
1391;DHT22;690;51.454;7.194;2022-09-06T15:03:37;32.50;99.90
1391;DHT22;690;51.454;7.194;2022-09-06T15:06:05;32.60;99.90
1391;DHT22;690;51.454;7.194;2022-09-06T15:08:32;32.60;99.90
1391;DHT22;690;51.454;7.194;2022-09-06T15:11:01;32.60;99.90
1391;DHT22;690;51.454;7.194;2022-09-06T15:13:29;32.70;99.90
1391;DHT22;690;51.454;7.194;2022-09-06T15:15:57;32.70;99.90
1391;DHT22;690;51.454;7.194;2022-09-06T15:18:24;32.70;99.90
1391;DHT22;690;51.454;7.194;2022-09-06T15:20:51;32.80;99.90
1391;DHT22;690;51.454;7.194;2022-09-06T15:23:19;32.80;99.90
1391;DHT22;690;51.454;7.194;2022-09-06T15:25:47;32.90;99.90
1391;DHT22;690;51.454;7.194;2022-09-06T15:28:16;33.00;99.90
1391;DHT22;690;51.454;7.194;2022-09-06T15:30:44;33.00;99.90
1391;DHT22;690;51.454;7.194;2022-09-06T15:33:11;33.10;99.90
1391;DHT22;690;51.454;7.194;2022-09-06T15:35:40;33.10;99.90
1391;DHT22;690;51.454;7.194;2022-09-06T15:38:08;33.20;99.90
1391;DHT22;690;51.454;7.194;2022-09-06T15:40:35;33.20;99.90
1391;DHT22;690;51.454;7.194;2022-09-06T15:43:02;33.20;99.90
1391;DHT22;690;51.454;7.194;2022-09-06T15:45:33;33.20;99.90
1391;DHT22;690;51.454;7.194;2022-09-06T15:48:03;33.10;99.90
1391;DHT22;690;51.454;7.194;2022-09-06T15:50:30;33.10;99.90
1391;DHT22;690;51.454;7.194;2022-09-06T15:53:04;33.00;99.90
1391;DHT22;690;51.454;7.194;2022-09-06T15:55:31;33.00;99.90
1391;DHT22;690;51.454;7.194;2022-09-06T15:58:15;33.00;99.90
1391;DHT22;690;51.454;7.194;2022-09-06T16:00:43;33.00;99.90
1391;DHT22;690;51.454;7.194;2022-09-06T16:03:11;33.00;99.90
1391;DHT22;690;51.454;7.194;2022-09-06T16:05:39;33.00;99.90
1391;DHT22;690;51.454;7.194;2022-09-06T16:08:06;33.00;99.90
1391;DHT22;690;51.454;7.194;2022-09-06T16:10:37;33.00;99.90
1391;DHT22;690;51.454;7.194;2022-09-06T16:13:04;33.00;99.90
1391;DHT22;690;51.454;7.194;2022-09-06T16:15:31;33.30;99.90
1391;DHT22;690;51.454;7.194;2022-09-06T16:17:59;33.60;99.90
1391;DHT22;690;51.454;7.194;2022-09-06T16:20:29;34.10;99.90
1391;DHT22;690;51.454;7.194;2022-09-06T16:22:56;34.60;99.90
1391;DHT22;690;51.454;7.194;2022-09-06T16:25:23;35.10;99.90
1391;DHT22;690;51.454;7.194;2022-09-06T16:27:50;35.70;99.90
1391;DHT22;690;51.454;7.194;2022-09-06T16:30:18;36.30;99.90
1391;DHT22;690;51.454;7.194;2022-09-06T16:32:44;36.80;99.90
1391;DHT22;690;51.454;7.194;2022-09-06T16:35:13;37.30;99.90
1391;DHT22;690;51.454;7.194;2022-09-06T16:37:40;37.70;99.90
1391;DHT22;690;51.454;7.194;2022-09-06T16:40:08;37.90;99.90
1391;DHT22;690;51.454;7.194;2022-09-06T16:42:35;38.00;99.90
1391;DHT22;690;51.454;7.194;2022-09-06T16:45:02;38.00;99.90
1391;DHT22;690;51.454;7.194;2022-09-06T16:47:29;37.90;99.90
1391;DHT22;690;51.454;7.194;2022-09-06T16:49:57;37.60;99.90